createdAt,value
2018-07-15T00:03:03.395Z,0
2018-07-15T00:13:03.100Z,0
2018-07-15T00:23:02.650Z,0
2018-07-15T00:33:02.556Z,0
2018-07-15T00:43:02.497Z,0
2018-07-15T00:53:02.434Z,0
2018-07-15T01:03:02.488Z,0
2018-07-15T01:13:02.531Z,0
2018-07-15T01:23:02.435Z,0
2018-07-15T01:33:02.442Z,0
2018-07-15T01:43:02.502Z,0
2018-07-15T01:53:02.448Z,0
2018-07-15T02:03:02.535Z,0
2018-07-15T02:13:02.500Z,0
2018-07-15T02:23:02.480Z,0
2018-07-15T02:33:02.505Z,0
2018-07-15T02:43:02.425Z,0
2018-07-15T02:53:02.498Z,0
2018-07-15T03:03:02.460Z,0
2018-07-15T03:13:02.497Z,0
2018-07-15T03:23:02.525Z,5
2018-07-15T03:39:31.384Z,10
2018-07-15T03:43:02.436Z,15
2018-07-15T03:53:02.595Z,30
2018-07-15T04:03:02.496Z,35
2018-07-15T04:13:02.604Z,35
2018-07-15T04:23:02.608Z,45
2018-07-15T04:33:02.570Z,50
2018-07-15T04:43:02.598Z,60
2018-07-15T04:53:02.622Z,65
2018-07-15T05:03:02.579Z,70
2018-07-15T05:13:02.596Z,80
2018-07-15T05:23:02.657Z,100
2018-07-15T05:33:02.602Z,80
2018-07-15T05:43:02.690Z,90
2018-07-15T05:53:02.666Z,100
2018-07-15T06:03:02.776Z,145
2018-07-15T06:13:02.781Z,225
2018-07-15T06:23:02.698Z,260
2018-07-15T06:33:02.819Z,275
2018-07-15T06:43:02.675Z,290
2018-07-15T06:53:02.650Z,305
2018-07-15T07:03:02.711Z,320
2018-07-15T07:13:02.622Z,335
2018-07-15T07:23:02.805Z,345
2018-07-15T07:33:02.673Z,355
2018-07-15T07:43:02.989Z,365
2018-07-15T07:53:02.810Z,370
2018-07-15T08:03:02.668Z,375
2018-07-15T08:13:02.842Z,375
2018-07-15T08:23:02.808Z,370
2018-07-15T08:33:02.787Z,355
2018-07-15T08:43:02.754Z,335
2018-07-15T08:53:02.738Z,315
2018-07-15T09:03:02.804Z,275
2018-07-15T09:13:02.955Z,130
2018-07-15T09:23:02.841Z,105
2018-07-15T09:33:02.793Z,105
2018-07-15T09:43:02.920Z,105
2018-07-15T09:53:02.798Z,105
2018-07-15T10:03:02.760Z,105
2018-07-15T10:13:37.560Z,105
2018-07-15T10:23:02.740Z,105
2018-07-15T10:33:02.797Z,105
2018-07-15T10:43:02.716Z,110
2018-07-15T10:53:02.748Z,110
2018-07-15T11:03:06.976Z,110
2018-07-15T11:13:02.811Z,105
2018-07-15T11:23:02.760Z,110
2018-07-15T11:33:02.997Z,110
2018-07-15T11:43:02.775Z,105
2018-07-15T11:53:05.568Z,105
2018-07-15T12:03:11.810Z,105
2018-07-15T12:13:20.978Z,105
2018-07-15T12:24:02.668Z,100
2018-07-15T12:33:12.810Z,100
2018-07-15T12:43:16.038Z,105
2018-07-15T12:53:15.795Z,105
2018-07-15T13:03:14.635Z,100
2018-07-15T13:14:05.196Z,100
2018-07-15T13:23:13.821Z,100
2018-07-15T13:33:12.046Z,100
2018-07-15T13:43:12.412Z,100
2018-07-15T13:53:13.297Z,100
2018-07-15T14:03:11.351Z,100
2018-07-15T14:13:12.183Z,100
2018-07-15T14:23:13.412Z,100
2018-07-15T14:33:02.765Z,100
2018-07-15T14:43:02.829Z,100
2018-07-15T14:53:02.835Z,95
2018-07-15T15:03:13.164Z,100
2018-07-15T15:13:13.239Z,100
2018-07-15T15:23:12.752Z,100
2018-07-15T15:33:13.469Z,100
2018-07-15T15:43:13.617Z,95
2018-07-15T15:53:13.114Z,95
2018-07-15T16:04:03.987Z,95
2018-07-15T16:13:12.522Z,90
2018-07-15T16:23:12.607Z,90
2018-07-15T16:33:11.654Z,90
2018-07-15T16:43:11.763Z,85
2018-07-15T16:53:17.206Z,80
2018-07-15T17:03:12.166Z,80
2018-07-15T17:13:13.759Z,75
2018-07-15T17:23:16.471Z,70
2018-07-15T17:33:14.115Z,75
2018-07-15T17:43:12.846Z,70
2018-07-15T17:53:12.161Z,65
2018-07-15T18:03:12.654Z,60
2018-07-15T18:13:11.611Z,55
2018-07-15T18:23:13.288Z,50
2018-07-15T18:33:14.720Z,45
2018-07-15T18:43:46.258Z,40
2018-07-15T18:53:45.188Z,35
2018-07-15T19:03:58.767Z,25
2018-07-15T19:13:15.269Z,20
2018-07-15T19:23:12.554Z,15
2018-07-15T19:33:12.556Z,5
2018-07-15T19:43:13.243Z,5
2018-07-15T19:53:14.451Z,0
2018-07-15T20:04:05.442Z,0
2018-07-15T20:14:03.404Z,0
2018-07-15T20:23:11.241Z,0
2018-07-15T20:33:11.803Z,0
2018-07-15T20:43:11.547Z,0
2018-07-15T20:53:16.194Z,0
2018-07-15T21:03:51.965Z,0
2018-07-15T21:14:06.700Z,0
2018-07-15T21:23:11.616Z,0
2018-07-15T21:33:12.130Z,0
2018-07-15T21:43:03.611Z,0
2018-07-15T21:53:03.121Z,0
2018-07-15T22:03:03.030Z,0
2018-07-15T22:13:03.057Z,0
2018-07-15T22:23:03.040Z,0
2018-07-15T22:33:03.083Z,0
2018-07-15T22:43:03.006Z,0
2018-07-15T22:53:02.922Z,0
2018-07-15T23:03:03.091Z,0
2018-07-15T23:13:02.879Z,0
2018-07-15T23:23:11.240Z,0
2018-07-15T23:33:02.986Z,0
2018-07-15T23:43:02.905Z,0
2018-07-15T23:53:02.957Z,0
